createdAt,value
2023-03-22T00:04:00.113Z,98.24
2023-03-22T00:08:00.154Z,97.84
2023-03-22T00:12:00.285Z,96.92
2023-03-22T00:16:00.398Z,95.69
2023-03-22T00:20:00.531Z,97.11
2023-03-22T00:24:07.964Z,93.47
2023-03-22T00:28:00.533Z,95.02
2023-03-22T00:32:00.518Z,95.47
2023-03-22T00:36:00.463Z,93.00
2023-03-22T00:40:00.451Z,93.41
2023-03-22T00:44:00.389Z,92.24
2023-03-22T00:48:00.467Z,91.05
2023-03-22T00:52:00.318Z,91.36
2023-03-22T00:56:07.486Z,89.48
2023-03-22T01:00:00.417Z,91.85
2023-03-22T01:04:00.380Z,92.15
2023-03-22T01:08:00.298Z,92.63
2023-03-22T01:12:00.285Z,90.60
2023-03-22T01:16:07.531Z,88.19
2023-03-22T01:20:00.200Z,90.22
2023-03-22T01:24:00.163Z,90.29
2023-03-22T01:28:00.147Z,86.61
2023-03-22T01:32:00.091Z,87.09
2023-03-22T01:36:00.103Z,87.43
2023-03-22T01:40:00.003Z,86.01
2023-03-22T01:43:59.969Z,85.44
2023-03-22T01:47:59.929Z,85.01
2023-03-22T01:51:59.973Z,84.38
2023-03-22T01:56:07.557Z,86.38
2023-03-22T02:00:00.050Z,85.76
2023-03-22T02:04:00.009Z,84.35
2023-03-22T02:08:07.051Z,81.58
2023-03-22T02:11:59.952Z,82.35
2023-03-22T02:15:59.956Z,81.61
2023-03-22T02:19:59.905Z,80.40
2023-03-22T02:23:59.823Z,83.11
2023-03-22T02:27:59.785Z,79.93
2023-03-22T02:31:59.778Z,78.11
2023-03-22T02:35:59.705Z,80.22
2023-03-22T02:39:59.672Z,77.28
2023-03-22T02:43:59.609Z,77.90
2023-03-22T02:47:59.667Z,76.02
2023-03-22T02:51:59.740Z,74.46
2023-03-22T02:55:59.822Z,74.90
2023-03-22T02:59:59.918Z,75.11
2023-03-22T03:08:18.981Z,25.00
2023-03-22T03:12:18.922Z,26.69
2023-03-22T03:16:18.897Z,28.55
2023-03-22T03:20:18.838Z,27.79
2023-03-22T03:24:18.750Z,28.03
2023-03-22T03:28:18.749Z,25.90
2023-03-22T03:32:18.732Z,30.63
2023-03-22T03:36:18.671Z,28.90
2023-03-22T03:40:18.664Z,29.03
2023-03-22T03:44:18.571Z,26.19
2023-03-22T03:48:18.640Z,29.12
2023-03-22T03:52:18.540Z,25.78
2023-03-22T03:56:18.481Z,26.08
2023-03-22T04:00:18.458Z,25.85
2023-03-22T04:04:18.456Z,27.41
2023-03-22T04:08:18.420Z,29.50
2023-03-22T04:12:18.328Z,28.35
2023-03-22T04:16:18.336Z,29.24
2023-03-22T04:20:18.247Z,28.83
2023-03-22T04:24:18.237Z,30.56
2023-03-22T04:28:18.320Z,26.34
2023-03-22T04:32:18.382Z,27.10
2023-03-22T04:36:18.435Z,28.29
2023-03-22T04:40:18.488Z,26.70
2023-03-22T04:44:18.596Z,28.36
2023-03-22T04:48:18.752Z,27.44
2023-03-22T04:52:26.190Z,28.16
2023-03-22T04:56:18.794Z,31.25
2023-03-22T05:00:18.706Z,29.03
2023-03-22T05:04:18.673Z,29.29
2023-03-22T05:08:18.628Z,29.67
2023-03-22T05:12:18.620Z,30.18
2023-03-22T05:16:18.624Z,30.16
2023-03-22T05:20:18.516Z,29.94
2023-03-22T05:24:18.570Z,27.64
2023-03-22T05:28:18.643Z,29.97
2023-03-22T05:32:18.711Z,28.44
2023-03-22T05:36:18.777Z,29.08
2023-03-22T05:40:18.902Z,29.62
2023-03-22T05:44:18.912Z,29.06
2023-03-22T05:48:26.754Z,29.25
2023-03-22T05:52:18.959Z,31.48
2023-03-22T05:56:18.924Z,30.72
2023-03-22T06:00:18.909Z,31.23
2023-03-22T06:04:18.896Z,82.01
2023-03-22T06:08:18.859Z,25.00
2023-03-22T06:12:19.041Z,34.28
2023-03-22T06:16:19.325Z,25.00
2023-03-22T06:20:19.408Z,26.27
2023-03-22T06:24:19.589Z,26.28
2023-03-22T06:28:19.809Z,27.43
2023-03-22T06:32:20.029Z,29.01
2023-03-22T06:36:20.234Z,26.50
2023-03-22T06:40:20.374Z,31.03
2023-03-22T06:44:20.578Z,39.62
2023-03-22T06:48:20.766Z,40.34
2023-03-22T06:52:20.903Z,49.38
2023-03-22T06:56:21.135Z,57.18
2023-03-22T07:00:21.264Z,68.21
2023-03-22T07:04:21.400Z,68.89
2023-03-22T07:08:21.459Z,73.78
2023-03-22T07:12:21.600Z,78.89
2023-03-22T07:16:21.734Z,79.06
2023-03-22T07:20:21.669Z,78.52
2023-03-22T07:24:21.739Z,83.80
2023-03-22T07:28:21.814Z,85.62
2023-03-22T07:32:21.927Z,84.05
2023-03-22T07:36:21.898Z,85.81
2023-03-22T07:40:22.006Z,87.93
2023-03-22T07:44:22.044Z,89.95
2023-03-22T07:48:22.733Z,88.49
2023-03-22T07:52:22.120Z,88.21
2023-03-22T07:56:22.210Z,88.39
2023-03-22T08:00:22.301Z,102.71
2023-03-22T08:04:22.429Z,115.02
2023-03-22T08:08:22.636Z,124.01
2023-03-22T08:12:22.786Z,134.95
2023-03-22T08:16:22.948Z,138.01
2023-03-22T08:20:23.078Z,152.08
2023-03-22T08:24:23.124Z,161.95
2023-03-22T08:28:23.230Z,173.20
2023-03-22T08:32:23.309Z,190.80
2023-03-22T08:36:23.349Z,204.08
2023-03-22T08:40:23.565Z,210.90
2023-03-22T08:44:23.462Z,227.87
2023-03-22T08:48:23.746Z,129.99
2023-03-22T08:52:23.673Z,72.42
2023-03-22T08:56:23.797Z,71.47
2023-03-22T09:00:23.892Z,104.42
2023-03-22T09:04:24.062Z,116.12
2023-03-22T09:08:24.078Z,137.19
2023-03-22T09:12:24.259Z,156.49
2023-03-22T09:16:24.432Z,172.16
2023-03-22T09:20:24.499Z,186.57
2023-03-22T09:24:24.482Z,201.91
2023-03-22T09:28:24.617Z,216.11
2023-03-22T09:32:24.804Z,223.98
2023-03-22T09:36:24.999Z,234.57
2023-03-22T09:40:25.153Z,245.32
2023-03-22T09:44:25.303Z,238.44
2023-03-22T09:48:25.464Z,241.39
2023-03-22T09:52:25.479Z,249.26
2023-03-22T09:56:25.473Z,243.67
2023-03-22T10:00:25.616Z,228.05
2023-03-22T10:04:25.656Z,232.20
2023-03-22T10:08:25.795Z,234.87
2023-03-22T10:12:25.976Z,236.53
2023-03-22T10:16:26.221Z,241.09
2023-03-22T10:20:26.298Z,249.38
2023-03-22T10:24:26.438Z,250.00
2023-03-22T10:28:26.554Z,248.26
2023-03-22T10:32:26.629Z,248.79
2023-03-22T10:36:26.746Z,249.30
2023-03-22T10:40:26.872Z,249.04
2023-03-22T10:44:27.008Z,246.07
2023-03-22T10:48:27.198Z,222.52
2023-03-22T10:52:27.235Z,207.26
2023-03-22T10:56:27.410Z,203.40
2023-03-22T11:00:27.643Z,199.98
2023-03-22T11:04:27.781Z,190.05
2023-03-22T11:08:27.848Z,190.57
2023-03-22T11:12:27.888Z,187.60
2023-03-22T11:16:27.937Z,177.75
2023-03-22T11:20:29.962Z,176.52
2023-03-22T11:24:27.955Z,176.17
2023-03-22T11:28:27.943Z,174.72
2023-03-22T11:32:27.940Z,167.86
2023-03-22T11:36:27.853Z,164.93
2023-03-22T11:40:34.876Z,159.06
2023-03-22T11:44:27.767Z,160.93
2023-03-22T11:48:27.831Z,160.45
2023-03-22T11:52:27.746Z,157.05
2023-03-22T11:56:27.652Z,154.54
2023-03-22T12:00:27.606Z,150.66
2023-03-22T12:04:27.602Z,150.06
2023-03-22T12:08:27.553Z,147.95
2023-03-22T12:12:27.736Z,145.25
2023-03-22T12:16:27.959Z,143.52
2023-03-22T12:20:28.111Z,142.18
2023-03-22T12:24:28.246Z,139.15
2023-03-22T12:28:28.469Z,138.87
2023-03-22T12:32:28.694Z,134.50
2023-03-22T12:36:28.948Z,134.29
2023-03-22T12:40:29.077Z,132.26
2023-03-22T12:44:29.281Z,130.62
2023-03-22T12:48:29.626Z,129.34
2023-03-22T12:52:34.730Z,129.58
2023-03-22T12:56:30.883Z,128.59
2023-03-22T13:00:29.627Z,126.09
2023-03-22T13:04:29.907Z,121.83
2023-03-22T13:08:31.839Z,121.08
2023-03-22T13:12:30.430Z,117.68
2023-03-22T13:16:30.462Z,118.22
2023-03-22T13:20:30.411Z,117.55
2023-03-22T13:24:32.356Z,112.21
2023-03-22T13:28:30.679Z,112.63
2023-03-22T13:32:30.851Z,108.55
2023-03-22T13:36:30.896Z,109.01
2023-03-22T13:40:31.016Z,106.56
2023-03-22T13:44:31.414Z,105.93
2023-03-22T13:48:31.854Z,102.79
2023-03-22T13:52:31.282Z,102.62
2023-03-22T13:56:31.410Z,100.79
2023-03-22T14:00:39.666Z,97.46
2023-03-22T14:04:31.940Z,99.21
2023-03-22T14:08:31.487Z,96.76
2023-03-22T14:12:31.967Z,97.25
2023-03-22T14:16:31.647Z,92.41
2023-03-22T14:20:31.953Z,92.08
2023-03-22T14:49:33.074Z,25.00
2023-03-22T14:53:33.077Z,26.17
2023-03-22T14:57:36.793Z,25.85
2023-03-22T15:01:33.100Z,26.72
2023-03-22T15:05:32.742Z,30.02
2023-03-22T15:09:39.741Z,27.94
2023-03-22T15:13:33.143Z,27.72
2023-03-22T15:17:33.065Z,26.60
2023-03-22T15:21:32.584Z,26.57
2023-03-22T15:25:39.706Z,27.08
2023-03-22T15:29:32.510Z,28.30
2023-03-22T15:33:39.664Z,29.76
2023-03-22T15:37:32.615Z,29.71
2023-03-22T15:41:32.650Z,27.10
2023-03-22T15:45:32.400Z,25.17
2023-03-22T15:49:32.630Z,28.67
2023-03-22T15:53:32.623Z,26.10
2023-03-22T15:57:32.663Z,29.02
2023-03-22T16:01:32.701Z,27.12
2023-03-22T16:05:32.168Z,28.57
2023-03-22T16:09:32.638Z,28.18
2023-03-22T16:13:32.623Z,26.00
2023-03-22T16:17:39.657Z,28.02
2023-03-22T16:21:32.390Z,28.69
2023-03-22T16:25:32.339Z,27.65
2023-03-22T16:29:32.310Z,28.63
2023-03-22T16:33:32.291Z,27.68
2023-03-22T16:37:32.268Z,28.91
2023-03-22T16:41:32.651Z,26.24
2023-03-22T16:45:39.280Z,27.94
2023-03-22T16:49:32.193Z,28.58
2023-03-22T16:53:40.365Z,29.61
2023-03-22T16:57:33.222Z,29.39
2023-03-22T17:01:32.023Z,26.59
2023-03-22T17:05:32.008Z,27.15
2023-03-22T17:09:39.224Z,26.76
2023-03-22T17:13:32.201Z,28.55
2023-03-22T17:17:31.993Z,26.07
2023-03-22T17:21:31.917Z,27.92
2023-03-22T17:25:31.835Z,25.70
2023-03-22T17:29:32.270Z,27.07
2023-03-22T17:33:32.225Z,26.73
2023-03-22T17:37:31.787Z,26.48
2023-03-22T17:41:31.753Z,27.02
2023-03-22T17:45:46.765Z,27.14
2023-03-22T17:49:32.733Z,26.55
2023-03-22T17:54:17.540Z,29.74
2023-03-22T17:57:53.972Z,27.28
2023-03-22T18:01:32.834Z,27.18
2023-03-22T18:05:34.174Z,25.00
2023-03-22T18:09:31.759Z,29.86
2023-03-22T18:13:31.996Z,27.41
2023-03-22T18:17:31.412Z,27.41
2023-03-22T18:21:31.417Z,26.14
2023-03-22T18:25:41.381Z,27.89
2023-03-22T18:29:32.422Z,28.59
2023-03-22T18:33:31.734Z,26.88
2023-03-22T18:37:31.659Z,27.54
2023-03-22T18:41:44.660Z,25.87
2023-03-22T18:45:51.414Z,25.69
2023-03-22T18:49:32.761Z,26.04
2023-03-22T18:53:31.638Z,26.37
2023-03-22T18:57:32.428Z,30.30
2023-03-22T19:01:31.938Z,29.18
2023-03-22T19:05:31.745Z,28.34
2023-03-22T19:09:31.464Z,25.87
2023-03-22T19:13:31.806Z,26.02
2023-03-22T19:17:31.387Z,25.84
2023-03-22T19:21:32.463Z,26.44
2023-03-22T19:25:31.753Z,25.76
2023-03-22T19:29:31.309Z,29.14
2023-03-22T19:33:45.692Z,27.89
2023-03-22T19:37:32.355Z,27.57
2023-03-22T19:45:31.288Z,24.61
2023-03-22T19:49:31.239Z,26.08
2023-03-22T19:54:08.465Z,27.78
2023-03-22T19:57:32.165Z,28.01
2023-03-22T20:01:31.293Z,26.61
2023-03-22T20:05:34.944Z,28.10
2023-03-22T20:09:32.305Z,25.95
2023-03-22T20:13:31.099Z,26.23
2023-03-22T20:17:31.292Z,25.97
2023-03-22T20:21:31.290Z,27.72
2023-03-22T20:25:31.815Z,28.05
2023-03-22T20:29:38.789Z,27.09
2023-03-22T20:33:31.557Z,29.02
2023-03-22T20:37:31.812Z,26.24
2023-03-22T20:41:31.819Z,27.77
2023-03-22T20:45:31.435Z,29.01
2023-03-22T20:49:31.413Z,29.42
2023-03-22T20:53:31.377Z,27.47
2023-03-22T20:57:31.824Z,26.25
2023-03-22T21:01:31.283Z,27.40
2023-03-22T21:05:31.290Z,28.41
2023-03-22T21:09:31.359Z,28.70
2023-03-22T21:13:31.927Z,25.44
2023-03-22T21:17:38.818Z,28.81
2023-03-22T21:21:33.436Z,28.75
2023-03-22T21:25:31.486Z,29.39
2023-03-22T21:29:31.442Z,27.25
2023-03-22T21:33:31.842Z,28.60
2023-03-22T21:37:31.362Z,32.83
2023-03-22T21:41:31.373Z,26.43
2023-03-22T21:45:31.309Z,27.87
2023-03-22T21:49:31.254Z,26.78
2023-03-22T21:53:31.322Z,26.46
2023-03-22T21:57:31.169Z,27.92
2023-03-22T22:01:31.328Z,25.81
2023-03-22T22:05:31.138Z,27.77
2023-03-22T22:09:31.048Z,25.64
2023-03-22T22:13:31.857Z,27.09
2023-03-22T22:17:31.360Z,25.71
2023-03-22T22:21:31.346Z,26.24
2023-03-22T22:25:31.886Z,25.79
2023-03-22T22:29:31.522Z,27.12
2023-03-22T22:33:31.860Z,29.52
2023-03-22T22:37:31.694Z,27.83
2023-03-22T22:41:31.789Z,29.52
2023-03-22T22:45:31.879Z,28.55
2023-03-22T22:49:32.361Z,26.41
2023-03-22T22:53:32.072Z,26.44
2023-03-22T22:57:32.359Z,26.46
2023-03-22T23:01:32.231Z,27.57
2023-03-22T23:05:32.347Z,27.47
2023-03-22T23:09:39.864Z,29.71
2023-03-22T23:13:32.402Z,28.74
2023-03-22T23:17:32.350Z,26.15
2023-03-22T23:21:32.386Z,28.00
2023-03-22T23:25:32.411Z,27.26
2023-03-22T23:29:32.253Z,25.83
2023-03-22T23:33:32.401Z,26.28
2023-03-22T23:37:32.172Z,28.41
2023-03-22T23:41:32.409Z,29.46
2023-03-22T23:45:32.329Z,28.31
2023-03-22T23:49:32.901Z,26.15
2023-03-22T23:53:32.897Z,26.57
2023-03-22T23:57:32.802Z,27.75
